createdAt,value
2019-03-17T00:00:24.334Z,69.85
2019-03-17T00:01:24.719Z,70.26
2019-03-17T00:02:24.775Z,69.85
2019-03-17T00:03:24.666Z,69.96
2019-03-17T00:04:31.301Z,69.55
2019-03-17T00:05:25.673Z,69.96
2019-03-17T00:06:24.657Z,69.45
2019-03-17T00:07:24.355Z,69.14
2019-03-17T00:08:24.549Z,69.45
2019-03-17T00:09:24.229Z,69.04
2019-03-17T00:10:24.236Z,69.24
2019-03-17T00:11:24.246Z,68.63
2019-03-17T00:12:24.361Z,68.73
2019-03-17T00:13:24.187Z,68.73
2019-03-17T00:14:24.154Z,68.49
2019-03-17T00:15:24.429Z,68.63
2019-03-17T00:16:24.132Z,68.52
2019-03-17T00:17:25.229Z,68.63
2019-03-17T00:18:24.119Z,68.73
2019-03-17T00:19:24.097Z,68.42
2019-03-17T00:20:24.152Z,68.73
2019-03-17T00:21:24.080Z,68.63
2019-03-17T00:22:24.074Z,68.63
2019-03-17T00:23:24.080Z,67.27
2019-03-17T00:24:24.048Z,67.68
2019-03-17T00:25:24.037Z,67.88
2019-03-17T00:26:24.072Z,68.29
2019-03-17T00:27:24.011Z,68.39
2019-03-17T00:28:24.006Z,67.07
2019-03-17T00:29:24.043Z,66.86
2019-03-17T00:30:24.003Z,66.45
2019-03-17T00:31:24.487Z,66.45
2019-03-17T00:32:24.004Z,66.31
2019-03-17T00:33:23.986Z,66.01
2019-03-17T00:34:23.933Z,65.60
2019-03-17T00:35:23.934Z,65.70
2019-03-17T00:36:23.953Z,65.60
2019-03-17T00:37:23.948Z,65.70
2019-03-17T00:38:23.890Z,64.78
2019-03-17T00:39:23.888Z,65.30
2019-03-17T00:40:23.866Z,65.80
2019-03-17T00:41:23.863Z,65.26
2019-03-17T00:42:23.907Z,64.99
2019-03-17T00:43:23.847Z,64.89
2019-03-17T00:44:23.829Z,64.96
2019-03-17T00:45:23.813Z,65.09
2019-03-17T00:46:23.809Z,64.45
2019-03-17T00:47:23.813Z,64.45
2019-03-17T00:48:23.798Z,64.96
2019-03-17T00:49:23.932Z,65.16
2019-03-17T00:50:23.790Z,64.86
2019-03-17T00:51:23.747Z,65.57
2019-03-17T00:52:23.779Z,65.26
2019-03-17T00:53:23.730Z,64.45
2019-03-17T00:54:23.713Z,64.24
2019-03-17T00:55:23.708Z,64.24
2019-03-17T00:56:23.692Z,64.14
2019-03-17T00:57:23.687Z,63.63
2019-03-17T00:58:23.695Z,64.04
2019-03-17T00:59:23.669Z,63.73
2019-03-17T01:00:23.652Z,63.63
2019-03-17T01:01:23.649Z,63.63
2019-03-17T01:02:23.635Z,64.04
2019-03-17T01:03:23.652Z,63.63
2019-03-17T01:04:23.684Z,63.43
2019-03-17T01:05:23.604Z,62.92
2019-03-17T01:06:23.603Z,63.12
2019-03-17T01:07:23.576Z,62.61
2019-03-17T01:08:23.569Z,62.68
2019-03-17T01:09:23.604Z,62.58
2019-03-17T01:10:23.563Z,62.71
2019-03-17T01:11:23.528Z,62.81
2019-03-17T01:12:23.521Z,62.92
2019-03-17T01:13:23.508Z,63.32
2019-03-17T01:14:23.520Z,62.81
2019-03-17T01:15:23.495Z,62.81
2019-03-17T01:16:23.506Z,62.71
2019-03-17T01:17:23.481Z,62.92
2019-03-17T01:18:23.483Z,62.71
2019-03-17T01:19:32.445Z,62.92
2019-03-17T01:20:30.976Z,63.02
2019-03-17T01:21:30.961Z,62.61
2019-03-17T01:22:23.422Z,63.02
2019-03-17T01:23:23.402Z,62.92
2019-03-17T01:24:23.488Z,63.53
2019-03-17T01:25:23.383Z,63.43
2019-03-17T01:26:23.389Z,62.71
2019-03-17T01:27:23.376Z,62.81
2019-03-17T01:28:23.343Z,62.81
2019-03-17T01:29:23.341Z,62.92
2019-03-17T01:30:23.343Z,63.32
2019-03-17T01:31:32.143Z,62.81
2019-03-17T01:32:23.302Z,63.02
2019-03-17T01:33:23.286Z,63.02
2019-03-17T01:34:23.315Z,62.81
2019-03-17T01:35:23.341Z,63.12
2019-03-17T01:36:23.257Z,63.25
2019-03-17T01:37:23.261Z,63.22
2019-03-17T01:38:23.242Z,62.81
2019-03-17T01:39:23.230Z,62.81
2019-03-17T01:40:23.220Z,63.43
2019-03-17T01:41:23.221Z,62.74
2019-03-17T01:42:23.189Z,62.61
2019-03-17T01:43:23.182Z,62.51
2019-03-17T01:44:23.189Z,62.40
2019-03-17T01:45:23.165Z,62.20
2019-03-17T01:46:23.252Z,62.51
2019-03-17T01:47:23.143Z,62.61
2019-03-17T01:48:23.127Z,62.51
2019-03-17T01:49:23.122Z,62.33
2019-03-17T01:50:23.116Z,62.51
2019-03-17T01:51:23.089Z,62.40
2019-03-17T01:52:23.097Z,62.40
2019-03-17T01:53:23.078Z,62.20
2019-03-17T01:54:23.090Z,62.23
2019-03-17T01:55:23.073Z,62.30
2019-03-17T01:56:23.057Z,62.30
2019-03-17T01:57:23.108Z,62.51
2019-03-17T01:58:23.025Z,61.90
2019-03-17T01:59:23.014Z,61.79
2019-03-17T02:00:22.996Z,61.49
2019-03-17T02:01:23.008Z,61.38
2019-03-17T02:02:23.078Z,61.69
2019-03-17T02:03:22.975Z,62.40
2019-03-17T02:04:22.952Z,62.10
2019-03-17T02:05:22.943Z,61.79
2019-03-17T02:06:22.953Z,61.58
2019-03-17T02:07:22.945Z,61.90
2019-03-17T02:08:22.933Z,61.90
2019-03-17T02:09:22.903Z,61.79
2019-03-17T02:10:22.887Z,61.72
2019-03-17T02:11:22.876Z,62.33
2019-03-17T02:12:22.865Z,62.23
2019-03-17T02:13:22.875Z,62.10
2019-03-17T02:14:22.851Z,61.99
2019-03-17T02:15:22.830Z,61.79
2019-03-17T02:16:22.819Z,61.69
2019-03-17T02:17:22.841Z,61.99
2019-03-17T02:18:22.821Z,61.79
2019-03-17T02:19:22.848Z,61.90
2019-03-17T02:20:22.814Z,61.90
2019-03-17T02:21:22.792Z,61.99
2019-03-17T02:22:22.762Z,61.58
2019-03-17T02:23:22.757Z,61.79
2019-03-17T02:24:22.769Z,61.58
2019-03-17T02:25:22.764Z,61.82
2019-03-17T02:26:22.711Z,61.49
2019-03-17T02:27:22.709Z,61.79
2019-03-17T02:28:22.706Z,61.58
2019-03-17T02:29:22.706Z,61.69
2019-03-17T02:30:22.692Z,61.79
2019-03-17T02:31:22.671Z,61.92
2019-03-17T02:32:22.657Z,62.02
2019-03-17T02:33:22.664Z,62.13
2019-03-17T02:34:22.647Z,62.23
2019-03-17T02:35:38.025Z,62.33
2019-03-17T02:36:23.613Z,62.43
2019-03-17T02:37:22.613Z,62.43
2019-03-17T02:38:22.634Z,63.35
2019-03-17T02:39:26.128Z,62.74
2019-03-17T02:40:22.592Z,62.63
2019-03-17T02:41:22.587Z,62.84
2019-03-17T02:42:22.541Z,62.74
2019-03-17T02:43:22.521Z,62.63
2019-03-17T02:44:22.514Z,62.54
2019-03-17T02:45:22.516Z,62.95
2019-03-17T02:46:22.514Z,63.04
2019-03-17T02:47:22.491Z,62.95
2019-03-17T02:48:22.469Z,63.07
2019-03-17T02:49:22.500Z,63.07
2019-03-17T02:50:22.486Z,63.04
2019-03-17T02:51:22.435Z,63.39
2019-03-17T02:52:22.452Z,63.56
2019-03-17T02:53:22.440Z,63.48
2019-03-17T02:54:22.400Z,63.56
2019-03-17T02:55:22.419Z,63.15
2019-03-17T02:56:22.383Z,62.95
2019-03-17T02:57:22.419Z,63.66
2019-03-17T02:58:22.411Z,63.56
2019-03-17T02:59:22.365Z,63.15
2019-03-17T03:00:22.333Z,63.04
2019-03-17T03:01:22.344Z,62.98
2019-03-17T03:02:22.317Z,63.69
2019-03-17T03:03:22.315Z,63.48
2019-03-17T03:04:22.333Z,63.39
2019-03-17T03:05:22.289Z,63.48
2019-03-17T03:06:22.373Z,63.39
2019-03-17T03:07:22.270Z,63.39
2019-03-17T03:08:22.254Z,63.79
2019-03-17T03:09:22.267Z,63.07
2019-03-17T03:10:22.236Z,63.18
2019-03-17T03:11:22.222Z,63.07
2019-03-17T03:12:22.255Z,63.07
2019-03-17T03:13:22.197Z,63.45
2019-03-17T03:14:22.191Z,63.69
2019-03-17T03:15:22.200Z,63.07
2019-03-17T03:16:22.159Z,63.07
2019-03-17T03:17:22.169Z,63.07
2019-03-17T03:18:22.148Z,62.87
2019-03-17T03:19:22.141Z,63.48
2019-03-17T03:20:29.654Z,63.18
2019-03-17T03:21:22.103Z,63.18
2019-03-17T03:22:22.113Z,63.59
2019-03-17T03:23:22.087Z,63.59
2019-03-17T03:24:22.076Z,63.28
2019-03-17T03:25:22.201Z,63.07
2019-03-17T03:26:22.087Z,62.98
2019-03-17T03:27:22.072Z,62.98
2019-03-17T03:28:22.054Z,63.07
2019-03-17T03:29:22.016Z,63.48
2019-03-17T03:30:22.015Z,63.07
2019-03-17T03:31:22.001Z,63.07
2019-03-17T03:32:22.000Z,63.07
2019-03-17T03:33:30.601Z,63.51
2019-03-17T03:34:21.964Z,63.48
2019-03-17T03:35:21.951Z,63.41
2019-03-17T03:36:21.937Z,63.41
2019-03-17T03:37:21.927Z,63.21
2019-03-17T03:38:21.949Z,62.98
2019-03-17T03:39:21.935Z,63.10
2019-03-17T03:40:21.903Z,63.51
2019-03-17T03:41:21.882Z,63.69
2019-03-17T03:42:21.880Z,62.98
2019-03-17T03:43:21.868Z,63.00
2019-03-17T03:44:21.878Z,63.21
2019-03-17T03:45:21.845Z,62.90
2019-03-17T03:46:21.829Z,63.10
2019-03-17T03:47:21.827Z,63.21
2019-03-17T03:48:21.835Z,63.72
2019-03-17T03:49:21.832Z,63.21
2019-03-17T03:50:21.788Z,63.62
2019-03-17T03:51:21.791Z,63.62
2019-03-17T03:52:21.786Z,63.62
2019-03-17T03:53:21.756Z,63.51
2019-03-17T03:54:21.766Z,63.21
2019-03-17T03:55:21.854Z,63.62
2019-03-17T03:56:21.734Z,63.41
2019-03-17T03:57:21.709Z,63.41
2019-03-17T03:58:21.707Z,63.51
2019-03-17T03:59:21.718Z,63.31
2019-03-17T04:00:21.714Z,63.41
2019-03-17T04:01:21.669Z,63.21
2019-03-17T04:02:21.658Z,63.41
2019-03-17T04:03:21.645Z,63.59
2019-03-17T04:04:21.638Z,63.21
2019-03-17T04:05:21.659Z,63.10
2019-03-17T04:06:26.957Z,63.10
2019-03-17T04:07:22.599Z,63.62
2019-03-17T04:08:21.600Z,63.21
2019-03-17T04:09:21.587Z,63.51
2019-03-17T04:10:21.658Z,63.51
2019-03-17T04:11:21.565Z,63.28
2019-03-17T04:12:21.552Z,63.82
2019-03-17T04:13:21.666Z,63.62
2019-03-17T04:14:21.523Z,63.72
2019-03-17T04:15:21.522Z,64.23
2019-03-17T04:16:21.529Z,64.13
2019-03-17T04:17:21.516Z,63.82
2019-03-17T04:18:21.482Z,63.82
2019-03-17T04:19:21.493Z,63.62
2019-03-17T04:20:21.471Z,63.41
2019-03-17T04:21:21.479Z,63.62
2019-03-17T04:22:21.460Z,64.03
2019-03-17T04:23:21.445Z,64.03
2019-03-17T04:24:21.420Z,63.92
2019-03-17T04:25:21.433Z,64.03
2019-03-17T04:26:21.431Z,64.03
2019-03-17T04:27:21.390Z,64.06
2019-03-17T04:28:21.376Z,63.72
2019-03-17T04:29:21.389Z,63.41
2019-03-17T04:30:21.351Z,63.72
2019-03-17T04:31:21.442Z,64.16
2019-03-17T04:32:21.338Z,63.51
2019-03-17T04:33:21.357Z,63.85
2019-03-17T04:34:21.348Z,63.41
2019-03-17T04:35:21.348Z,63.44
2019-03-17T04:36:21.287Z,64.36
2019-03-17T04:37:28.917Z,63.72
2019-03-17T04:38:21.264Z,63.65
2019-03-17T04:39:21.258Z,63.54
2019-03-17T04:40:21.272Z,63.24
2019-03-17T04:41:21.260Z,63.41
2019-03-17T04:42:21.291Z,63.34
2019-03-17T04:43:21.215Z,63.34
2019-03-17T04:44:21.371Z,63.65
2019-03-17T04:45:21.229Z,63.85
2019-03-17T04:46:21.203Z,63.34
2019-03-17T04:47:21.214Z,63.34
2019-03-17T04:48:21.167Z,63.34
2019-03-17T04:49:21.154Z,63.34
2019-03-17T04:50:21.151Z,63.54
2019-03-17T04:51:21.141Z,63.95
2019-03-17T04:52:21.116Z,63.44
2019-03-17T04:53:21.139Z,63.75
2019-03-17T04:54:21.104Z,63.34
2019-03-17T04:55:21.090Z,64.06
2019-03-17T04:56:21.212Z,63.75
2019-03-17T04:57:21.063Z,63.62
2019-03-17T04:58:21.099Z,63.85
2019-03-17T04:59:21.035Z,63.85
2019-03-17T05:00:21.029Z,63.75
2019-03-17T05:01:21.019Z,63.65
2019-03-17T05:02:21.097Z,63.65
2019-03-17T05:03:21.026Z,63.54
2019-03-17T05:04:21.006Z,63.85
2019-03-17T05:05:20.978Z,63.82
2019-03-17T05:06:20.963Z,63.54
2019-03-17T05:07:20.964Z,63.75
2019-03-17T05:08:20.952Z,63.41
2019-03-17T05:09:21.171Z,63.51
2019-03-17T05:10:22.888Z,63.41
2019-03-17T05:11:20.911Z,63.62
2019-03-17T05:12:20.905Z,63.72
2019-03-17T05:13:20.886Z,63.51
2019-03-17T05:14:20.909Z,63.72
2019-03-17T05:15:20.870Z,63.62
2019-03-17T05:16:20.884Z,63.41
2019-03-17T05:17:20.890Z,63.72
2019-03-17T05:18:20.838Z,63.62
2019-03-17T05:19:20.879Z,63.51
2019-03-17T05:20:20.809Z,63.51
2019-03-17T05:21:20.804Z,63.92
2019-03-17T05:22:20.821Z,64.13
2019-03-17T05:23:20.789Z,63.62
2019-03-17T05:24:20.798Z,64.13
2019-03-17T05:25:20.762Z,63.92
2019-03-17T05:26:20.784Z,63.82
2019-03-17T05:27:20.737Z,63.72
2019-03-17T05:28:23.114Z,64.03
2019-03-17T05:29:20.715Z,63.82
2019-03-17T05:30:20.782Z,64.03
2019-03-17T05:31:20.698Z,64.16
2019-03-17T05:32:20.691Z,64.26
2019-03-17T05:33:20.695Z,64.54
2019-03-17T05:34:20.665Z,64.74
2019-03-17T05:35:20.740Z,64.43
2019-03-17T05:36:20.639Z,65.25
2019-03-17T05:37:20.632Z,64.84
2019-03-17T05:38:20.647Z,65.36
2019-03-17T05:39:20.626Z,64.84
2019-03-17T05:40:20.601Z,65.46
2019-03-17T05:41:20.603Z,65.77
2019-03-17T05:42:20.574Z,65.80
2019-03-17T05:43:20.566Z,65.56
2019-03-17T05:44:20.549Z,65.56
2019-03-17T05:45:20.562Z,65.25
2019-03-17T05:46:20.599Z,65.80
2019-03-17T05:47:20.525Z,66.58
2019-03-17T05:48:20.514Z,66.20
2019-03-17T05:49:20.586Z,66.17
2019-03-17T05:50:20.491Z,66.72
2019-03-17T05:51:20.495Z,66.61
2019-03-17T05:52:20.463Z,67.43
2019-03-17T05:53:20.472Z,67.23
2019-03-17T05:54:20.461Z,67.54
2019-03-17T05:55:20.431Z,68.05
2019-03-17T05:56:20.486Z,68.87
2019-03-17T05:57:20.430Z,68.55
2019-03-17T05:58:20.402Z,69.27
2019-03-17T05:59:20.397Z,69.27
2019-03-17T06:00:20.401Z,69.89
2019-03-17T06:01:20.380Z,69.99
2019-03-17T06:02:20.377Z,70.40
2019-03-17T06:03:20.384Z,70.84
2019-03-17T06:04:20.332Z,70.53
2019-03-17T06:05:20.324Z,71.45
2019-03-17T06:06:20.316Z,71.86
2019-03-17T06:07:20.331Z,72.07
2019-03-17T06:08:20.299Z,72.38
2019-03-17T06:09:20.308Z,72.78
2019-03-17T06:10:20.270Z,73.10
2019-03-17T06:11:20.278Z,72.78
2019-03-17T06:12:20.281Z,73.40
2019-03-17T06:13:20.240Z,73.61
2019-03-17T06:14:20.253Z,73.74
2019-03-17T06:15:20.237Z,74.26
2019-03-17T06:16:20.205Z,74.26
2019-03-17T06:17:20.305Z,74.56
2019-03-17T06:18:20.235Z,74.46
2019-03-17T06:19:20.182Z,75.18
2019-03-17T06:20:20.193Z,74.97
2019-03-17T06:21:20.174Z,76.72
2019-03-17T06:22:20.140Z,75.99
2019-03-17T06:23:20.223Z,76.95
2019-03-17T06:24:20.129Z,76.95
2019-03-17T06:25:20.111Z,76.75
2019-03-17T06:26:20.118Z,76.95
2019-03-17T06:27:20.086Z,77.16
2019-03-17T06:28:21.594Z,77.77
2019-03-17T06:29:20.072Z,77.71
2019-03-17T06:30:20.071Z,78.49
2019-03-17T06:31:20.044Z,78.22
2019-03-17T06:32:20.035Z,78.32
2019-03-17T06:33:20.075Z,78.02
2019-03-17T06:34:20.020Z,78.94
2019-03-17T06:35:20.000Z,78.42
2019-03-17T06:36:19.990Z,79.04
2019-03-17T06:37:30.484Z,78.74
2019-03-17T06:38:21.073Z,78.63
2019-03-17T06:39:19.997Z,79.14
2019-03-17T06:40:19.952Z,79.28
2019-03-17T06:41:20.038Z,79.38
2019-03-17T06:42:19.930Z,79.24
2019-03-17T06:43:19.978Z,80.31
2019-03-17T06:44:19.931Z,80.10
2019-03-17T06:45:19.937Z,80.21
2019-03-17T06:46:19.875Z,80.31
2019-03-17T06:47:19.865Z,80.21
2019-03-17T06:48:19.855Z,80.17
2019-03-17T06:49:19.859Z,80.51
2019-03-17T06:50:19.837Z,79.96
2019-03-17T06:51:19.826Z,80.31
2019-03-17T06:52:19.825Z,80.21
2019-03-17T06:53:19.803Z,80.41
2019-03-17T06:54:19.829Z,80.92
2019-03-17T06:55:19.784Z,80.31
2019-03-17T06:56:19.763Z,80.72
2019-03-17T06:57:19.757Z,81.43
2019-03-17T06:58:19.747Z,81.34
2019-03-17T06:59:19.735Z,80.82
2019-03-17T07:00:19.744Z,81.13
2019-03-17T07:01:19.709Z,81.16
2019-03-17T07:02:19.698Z,80.92
2019-03-17T07:03:19.694Z,81.43
2019-03-17T07:04:19.693Z,81.23
2019-03-17T07:05:19.686Z,81.74
2019-03-17T07:06:19.775Z,82.26
2019-03-17T07:07:19.638Z,81.99
2019-03-17T07:08:19.637Z,82.05
2019-03-17T07:09:19.660Z,81.85
2019-03-17T07:10:19.661Z,81.74
2019-03-17T07:11:19.600Z,81.99
2019-03-17T07:12:19.588Z,81.88
2019-03-17T07:13:19.575Z,82.87
2019-03-17T07:14:19.570Z,82.05
2019-03-17T07:15:19.603Z,81.57
2019-03-17T07:16:19.541Z,82.05
2019-03-17T07:17:19.563Z,82.97
2019-03-17T07:18:19.533Z,82.97
2019-03-17T07:19:19.521Z,82.36
2019-03-17T07:20:19.504Z,82.87
2019-03-17T07:21:19.506Z,82.46
2019-03-17T07:22:19.483Z,81.74
2019-03-17T07:23:19.465Z,82.15
2019-03-17T07:24:19.582Z,82.05
2019-03-17T07:25:19.448Z,82.05
2019-03-17T07:26:19.464Z,81.48
2019-03-17T07:27:19.418Z,81.99
2019-03-17T07:28:19.407Z,81.64
2019-03-17T07:29:19.403Z,82.05
2019-03-17T07:30:19.394Z,81.99
2019-03-17T07:31:19.433Z,81.57
2019-03-17T07:32:27.966Z,82.19
2019-03-17T07:34:30.616Z,82.09
2019-03-17T07:35:39.744Z,82.05
2019-03-17T07:38:07.744Z,81.57
2019-03-17T07:39:11.954Z,81.02
2019-03-17T07:40:07.705Z,81.99
2019-03-17T07:41:07.694Z,81.78
2019-03-17T07:42:07.709Z,81.54
2019-03-17T07:43:07.686Z,81.48
2019-03-17T07:44:07.658Z,81.57
2019-03-17T07:45:07.646Z,81.64
2019-03-17T07:46:07.645Z,82.29
2019-03-17T07:47:07.667Z,81.74
2019-03-17T07:48:07.626Z,82.26
2019-03-17T07:49:07.629Z,82.19
2019-03-17T07:50:07.605Z,81.99
2019-03-17T07:53:05.942Z,81.20
2019-03-17T07:54:05.867Z,80.32
2019-03-17T07:55:15.473Z,80.11
2019-03-17T07:56:05.847Z,80.52
2019-03-17T07:57:05.854Z,79.91
2019-03-17T07:58:05.852Z,79.80
2019-03-17T07:59:05.843Z,78.71
2019-03-17T08:00:05.807Z,77.37
2019-03-17T08:01:05.794Z,78.30
2019-03-17T08:03:23.913Z,77.89
2019-03-17T08:04:23.882Z,77.58
2019-03-17T08:05:23.889Z,77.72
2019-03-17T08:06:23.863Z,77.89
2019-03-17T08:07:23.846Z,76.86
2019-03-17T08:08:23.882Z,76.97
2019-03-17T08:09:23.884Z,77.17
2019-03-17T08:10:23.814Z,77.17
2019-03-17T08:11:23.805Z,75.93
2019-03-17T08:12:23.807Z,76.76
2019-03-17T08:13:23.790Z,75.83
2019-03-17T08:14:23.808Z,75.12
2019-03-17T08:15:23.880Z,75.42
2019-03-17T08:16:23.749Z,75.73
2019-03-17T08:17:23.780Z,74.50
2019-03-17T08:18:23.736Z,73.98
2019-03-17T08:19:23.832Z,74.29
2019-03-17T08:20:23.723Z,74.80
2019-03-17T08:21:23.696Z,75.42
2019-03-17T08:22:23.741Z,74.50
2019-03-17T08:23:23.691Z,75.42
2019-03-17T08:24:23.670Z,75.32
2019-03-17T08:25:23.699Z,75.32
2019-03-17T08:26:23.652Z,74.29
2019-03-17T08:27:23.649Z,75.18
2019-03-17T08:28:23.664Z,73.98
2019-03-17T08:29:23.624Z,73.36
2019-03-17T08:30:23.729Z,74.08
2019-03-17T08:31:23.586Z,74.08
2019-03-17T08:32:23.606Z,73.68
2019-03-17T08:33:23.601Z,74.05
2019-03-17T08:34:23.596Z,73.98
2019-03-17T08:35:23.575Z,73.78
2019-03-17T08:36:23.536Z,74.46
2019-03-17T08:37:23.531Z,73.98
2019-03-17T08:38:23.558Z,73.44
2019-03-17T08:39:23.503Z,73.74
2019-03-17T08:40:23.491Z,73.95
2019-03-17T08:41:23.536Z,73.64
2019-03-17T08:42:23.467Z,73.64
2019-03-17T08:43:23.495Z,73.85
2019-03-17T08:44:23.476Z,73.64
2019-03-17T08:45:23.442Z,74.05
2019-03-17T08:46:23.708Z,73.64
2019-03-17T08:47:23.676Z,73.44
2019-03-17T08:48:23.910Z,73.54
2019-03-17T08:49:23.402Z,72.61
2019-03-17T08:50:23.394Z,73.36
2019-03-17T08:51:23.481Z,73.98
2019-03-17T08:52:23.388Z,73.74
2019-03-17T08:53:23.358Z,73.74
2019-03-17T08:54:23.430Z,72.72
2019-03-17T08:55:23.332Z,72.82
2019-03-17T08:56:23.422Z,72.61
2019-03-17T08:57:23.325Z,72.51
2019-03-17T08:58:23.318Z,73.13
2019-03-17T08:59:23.286Z,73.64
2019-03-17T09:00:23.274Z,72.82
2019-03-17T09:01:23.265Z,72.51
2019-03-17T09:02:24.099Z,72.92
2019-03-17T09:03:23.239Z,72.51
2019-03-17T09:04:23.236Z,72.72
2019-03-17T09:05:23.234Z,72.82
2019-03-17T09:06:23.356Z,72.72
2019-03-17T09:07:23.221Z,72.72
2019-03-17T09:08:34.492Z,72.82
2019-03-17T09:09:24.175Z,72.41
2019-03-17T09:10:23.163Z,73.02
2019-03-17T09:11:23.296Z,73.10
2019-03-17T09:12:23.207Z,72.78
2019-03-17T09:13:23.154Z,72.99
2019-03-17T09:14:23.126Z,72.58
2019-03-17T09:15:23.108Z,72.89
2019-03-17T09:16:23.230Z,72.99
2019-03-17T09:17:23.102Z,72.78
2019-03-17T09:18:23.111Z,72.89
2019-03-17T09:19:23.063Z,72.68
2019-03-17T09:20:23.062Z,72.58
2019-03-17T09:21:23.046Z,72.68
2019-03-17T09:22:23.353Z,73.19
2019-03-17T09:23:23.097Z,72.58
2019-03-17T09:24:23.010Z,72.78
2019-03-17T09:25:22.997Z,72.89
2019-03-17T09:26:23.007Z,72.48
2019-03-17T09:27:22.989Z,72.68
2019-03-17T09:28:23.023Z,72.89
2019-03-17T09:29:22.963Z,73.19
2019-03-17T09:30:22.947Z,72.78
2019-03-17T09:31:22.999Z,72.72
2019-03-17T09:32:22.969Z,73.02
2019-03-17T09:33:22.912Z,72.89
2019-03-17T09:34:22.918Z,72.58
2019-03-17T09:35:22.954Z,73.10
2019-03-17T09:36:22.887Z,72.38
2019-03-17T09:37:22.865Z,72.38
2019-03-17T09:38:22.861Z,72.38
2019-03-17T09:39:22.899Z,72.58
2019-03-17T09:40:22.877Z,72.34
2019-03-17T09:41:22.829Z,71.62
2019-03-17T09:42:22.813Z,72.14
2019-03-17T09:43:22.809Z,71.83
2019-03-17T09:44:22.831Z,72.03
2019-03-17T09:45:22.783Z,71.90
2019-03-17T09:46:22.790Z,71.48
2019-03-17T09:47:22.796Z,71.04
2019-03-17T09:48:22.752Z,70.53
2019-03-17T09:49:22.740Z,70.43
2019-03-17T09:50:22.747Z,70.32
2019-03-17T09:51:22.713Z,69.89
2019-03-17T09:52:22.708Z,70.09
2019-03-17T09:53:22.732Z,69.27
2019-03-17T09:54:22.692Z,69.37
2019-03-17T09:55:22.775Z,69.89
2019-03-17T09:56:22.811Z,69.57
2019-03-17T09:57:22.676Z,69.65
2019-03-17T09:58:22.657Z,68.38
2019-03-17T09:59:22.697Z,68.79
2019-03-17T10:00:22.635Z,68.93
2019-03-17T10:01:22.605Z,68.62
2019-03-17T10:02:22.604Z,69.03
2019-03-17T10:03:22.579Z,68.65
2019-03-17T10:04:22.577Z,68.83
2019-03-17T10:05:22.592Z,69.17
2019-03-17T10:06:22.565Z,69.89
2019-03-17T10:07:22.538Z,68.76
2019-03-17T10:08:22.526Z,68.55
2019-03-17T10:09:22.518Z,68.65
2019-03-17T10:10:22.539Z,68.89
2019-03-17T10:11:22.531Z,68.86
2019-03-17T10:12:22.481Z,68.76
2019-03-17T10:13:22.472Z,67.83
2019-03-17T10:14:22.470Z,67.11
2019-03-17T10:15:22.450Z,67.73
2019-03-17T10:16:22.488Z,67.11
2019-03-17T10:17:22.470Z,67.63
2019-03-17T10:18:22.420Z,67.11
2019-03-17T10:19:22.443Z,67.83
2019-03-17T10:20:22.402Z,66.91
2019-03-17T10:21:22.589Z,66.71
2019-03-17T10:22:22.449Z,66.71
2019-03-17T10:23:22.372Z,66.81
2019-03-17T10:24:22.356Z,66.91
2019-03-17T10:25:22.345Z,66.30
2019-03-17T10:26:22.343Z,67.32
2019-03-17T10:27:22.345Z,66.71
2019-03-17T10:28:22.316Z,66.91
2019-03-17T10:29:30.844Z,67.52
2019-03-17T10:30:22.289Z,67.08
2019-03-17T10:31:22.273Z,66.81
2019-03-17T10:32:22.293Z,67.08
2019-03-17T10:33:22.256Z,66.19
2019-03-17T10:34:22.249Z,67.22
2019-03-17T10:35:22.234Z,66.47
2019-03-17T10:36:22.225Z,66.06
2019-03-17T10:37:22.250Z,65.78
2019-03-17T10:38:22.199Z,66.40
2019-03-17T10:39:22.220Z,66.27
2019-03-17T10:40:22.177Z,65.78
2019-03-17T10:41:22.180Z,65.78
2019-03-17T10:42:22.213Z,66.30
2019-03-17T10:43:22.148Z,65.99
2019-03-17T10:44:22.138Z,65.68
2019-03-17T10:45:22.123Z,65.45
2019-03-17T10:46:22.114Z,63.02
2019-03-17T10:47:22.113Z,62.61
2019-03-17T10:48:22.105Z,62.81
2019-03-17T10:49:29.608Z,61.38
2019-03-17T10:50:29.621Z,61.27
2019-03-17T10:52:38.250Z,61.07
2019-03-17T10:53:46.783Z,60.76
2019-03-17T10:57:55.152Z,60.35
2019-03-17T10:58:55.126Z,60.25
2019-03-17T10:59:55.128Z,60.56
2019-03-17T11:00:55.108Z,59.81
2019-03-17T11:01:55.099Z,60.42
2019-03-17T11:02:55.112Z,60.53
2019-03-17T11:03:55.076Z,60.22
2019-03-17T11:04:55.078Z,60.33
2019-03-17T11:05:55.053Z,60.12
2019-03-17T11:06:55.039Z,59.78
2019-03-17T11:07:55.041Z,58.73
2019-03-17T11:08:55.072Z,58.50
2019-03-17T11:09:55.019Z,58.53
2019-03-17T11:10:54.998Z,58.53
2019-03-17T11:11:54.995Z,59.55
2019-03-17T11:12:54.976Z,59.86
2019-03-17T11:13:54.987Z,60.58
2019-03-17T11:14:54.962Z,59.99
2019-03-17T11:15:54.959Z,60.06
2019-03-17T11:16:54.937Z,60.06
2019-03-17T11:17:54.935Z,59.86
2019-03-17T11:18:54.938Z,60.27
2019-03-17T11:20:02.440Z,59.55
2019-03-17T11:21:02.429Z,59.89
2019-03-17T11:22:03.454Z,60.40
2019-03-17T11:23:02.410Z,60.60
2019-03-17T11:24:04.398Z,59.12
2019-03-17T11:25:02.377Z,58.04
2019-03-17T11:26:03.965Z,55.56
2019-03-17T11:27:02.380Z,53.06
2019-03-17T11:27:54.818Z,51.34
2019-03-17T11:28:54.827Z,49.36
2019-03-17T11:29:54.810Z,48.80
2019-03-17T11:30:54.783Z,46.71
2019-03-17T11:31:54.772Z,48.71
2019-03-17T11:32:54.767Z,46.59
2019-03-17T11:33:54.768Z,45.00
2019-03-17T11:34:54.761Z,43.16
2019-03-17T11:35:54.737Z,41.61
2019-03-17T11:36:54.736Z,41.52
2019-03-17T11:37:54.709Z,42.43
2019-03-17T11:38:54.701Z,44.46
2019-03-17T11:39:54.709Z,43.02
2019-03-17T11:40:54.681Z,45.98
2019-03-17T11:41:54.676Z,47.25
2019-03-17T11:42:54.653Z,47.08
2019-03-17T11:43:54.672Z,44.44
2019-03-17T11:44:54.711Z,42.64
2019-03-17T11:45:54.619Z,43.30
2019-03-17T11:46:54.610Z,45.82
2019-03-17T11:47:54.611Z,46.27
2019-03-17T11:48:54.595Z,47.71
2019-03-17T11:49:54.615Z,49.04
2019-03-17T11:50:54.568Z,51.68
2019-03-17T11:51:54.556Z,52.42
2019-03-17T11:52:54.581Z,51.05
2019-03-17T11:53:54.544Z,47.58
2019-03-17T11:54:54.615Z,44.97
2019-03-17T11:55:54.519Z,47.82
2019-03-17T11:56:54.515Z,45.46
2019-03-17T11:57:54.525Z,45.09
2019-03-17T11:58:54.485Z,44.40
2019-03-17T11:59:54.511Z,45.40
2019-03-17T12:00:54.479Z,47.00
2019-03-17T12:01:54.459Z,44.10
2019-03-17T12:02:54.445Z,40.55
2019-03-17T12:03:54.475Z,41.47
2019-03-17T12:04:54.429Z,43.67
2019-03-17T12:05:54.433Z,44.00
2019-03-17T12:06:54.398Z,41.52
2019-03-17T12:07:54.444Z,39.51
2019-03-17T12:08:54.480Z,38.99
2019-03-17T12:09:54.380Z,38.06
2019-03-17T12:10:54.370Z,37.90
2019-03-17T12:11:54.337Z,36.68
2019-03-17T12:12:54.351Z,37.62
2019-03-17T12:13:54.320Z,40.91
2019-03-17T12:14:54.309Z,40.73
2019-03-17T12:15:54.323Z,40.40
2019-03-17T12:16:54.285Z,42.65
2019-03-17T12:17:54.281Z,40.91
2019-03-17T12:18:54.278Z,42.86
2019-03-17T12:19:54.257Z,42.11
2019-03-17T12:20:54.254Z,39.17
2019-03-17T12:21:54.268Z,37.79
2019-03-17T12:22:54.240Z,37.23
2019-03-17T12:23:54.266Z,35.28
2019-03-17T12:24:54.208Z,36.00
2019-03-17T12:25:54.203Z,34.67
2019-03-17T12:26:54.215Z,38.01
2019-03-17T12:27:54.169Z,36.62
2019-03-17T12:28:54.185Z,36.32
2019-03-17T12:29:54.151Z,36.81
2019-03-17T12:30:54.144Z,36.74
2019-03-17T12:31:54.167Z,36.62
2019-03-17T12:32:54.130Z,38.29
2019-03-17T12:33:54.118Z,37.95
2019-03-17T12:34:54.108Z,38.51
2019-03-17T12:35:54.105Z,40.39
2019-03-17T12:36:54.145Z,39.00
2019-03-17T12:37:54.070Z,38.29
2019-03-17T12:38:54.052Z,37.87
2019-03-17T12:40:02.358Z,37.89
2019-03-17T12:40:55.036Z,40.65
2019-03-17T12:41:54.032Z,43.59
2019-03-17T12:42:54.038Z,44.45
2019-03-17T12:43:54.210Z,45.01
2019-03-17T12:44:53.989Z,45.47
2019-03-17T12:45:54.019Z,47.04
2019-03-17T12:46:53.984Z,47.55
2019-03-17T12:47:53.980Z,47.47
2019-03-17T12:48:53.945Z,47.60
2019-03-17T12:49:53.933Z,47.60
2019-03-17T12:50:53.932Z,47.80
2019-03-17T12:51:53.917Z,47.67
2019-03-17T12:52:53.948Z,43.90
2019-03-17T12:53:53.905Z,39.70
2019-03-17T12:54:53.887Z,37.57
2019-03-17T12:55:53.882Z,35.92
2019-03-17T12:56:53.857Z,35.21
2019-03-17T12:57:53.847Z,35.52
2019-03-17T12:58:53.857Z,35.72
2019-03-17T12:59:53.840Z,35.39
2019-03-17T13:00:53.817Z,36.91
2019-03-17T13:01:53.804Z,35.86
2019-03-17T13:02:53.794Z,35.16